Time;durP1;ratioP1;P1;durP2;ratioP2;P2;SDS_P1;SDS_P2;PMS_P1;PMS_P2;Temp;Humidity;BMP_temperature;BMP_pressure;BME280_temperature;BME280_humidity;BME280_pressure;Samples;Min_cycle;Max_cycle;Signal;HPM_P1;HPM_P2
2021/08/06 00:00:25;;;;;;;9.90;7.13;;;17.90;99.70;;;;;;5066019;28;20029;-94
2021/08/06 00:02:51;;;;;;;9.70;6.78;;;17.80;99.70;;;;;;5052839;28;20044;-93
2021/08/06 00:05:16;;;;;;;8.80;7.03;;;17.80;99.70;;;;;;5052732;28;20087;-92
2021/08/06 00:07:42;;;;;;;7.10;5.95;;;17.80;99.80;;;;;;5038697;28;20041;-93
2021/08/06 00:12:52;;;;;;;8.70;6.95;;;17.70;99.80;;;;;;5039397;28;20443;-93
2021/08/06 00:15:18;;;;;;;9.13;7.32;;;17.70;99.80;;;;;;5038762;28;20049;-93
2021/08/06 00:17:44;;;;;;;9.77;7.35;;;17.70;99.80;;;;;;5051161;28;20037;-93
2021/08/06 00:20:10;;;;;;;9.55;7.07;;;17.60;99.80;;;;;;5059174;28;20048;-93
2021/08/06 00:22:36;;;;;;;9.80;7.45;;;17.60;99.80;;;;;;5058325;28;20036;-93
2021/08/06 00:25:02;;;;;;;8.63;7.32;;;17.60;99.90;;;;;;5068559;28;20033;-93
2021/08/06 00:27:31;;;;;;;10.40;8.60;;;17.60;99.90;;;;;;5056027;28;20033;-93
2021/08/06 00:29:56;;;;;;;10.57;7.85;;;17.50;99.90;;;;;;5043078;28;20029;-90
2021/08/06 00:32:22;;;;;;;8.63;7.72;;;17.50;99.90;;;;;;5055216;28;20033;-91
2021/08/06 00:34:47;;;;;;;11.27;8.23;;;17.50;99.90;;;;;;5047857;28;20076;-92
2021/08/06 00:37:13;;;;;;;9.40;7.75;;;17.40;99.90;;;;;;5061181;28;20032;-91
2021/08/06 00:39:38;;;;;;;10.70;8.88;;;17.40;99.90;;;;;;5052470;28;20080;-92
2021/08/06 00:42:04;;;;;;;10.07;7.95;;;17.40;99.90;;;;;;5038945;28;20033;-92
2021/08/06 00:44:29;;;;;;;12.13;8.00;;;17.40;99.90;;;;;;5044385;28;20441;-92
2021/08/06 00:46:55;;;;;;;10.77;8.60;;;17.40;99.90;;;;;;5043665;28;20033;-92
2021/08/06 00:49:21;;;;;;;14.25;9.05;;;17.40;99.90;;;;;;5039780;28;20041;-92
2021/08/06 00:51:46;;;;;;;12.18;9.45;;;17.40;99.90;;;;;;5058488;28;20037;-93
2021/08/06 00:54:17;;;;;;;10.40;8.73;;;17.40;99.90;;;;;;5055347;28;20045;-91
2021/08/06 00:56:47;;;;;;;15.57;10.38;;;17.40;99.90;;;;;;5038420;28;20127;-92
2021/08/06 00:59:13;;;;;;;14.32;9.25;;;17.30;99.90;;;;;;5047342;28;20279;-91
2021/08/06 01:01:39;;;;;;;12.55;9.55;;;17.30;99.90;;;;;;5039047;28;20106;-92
2021/08/06 01:04:12;;;;;;;14.23;10.13;;;17.40;99.90;;;;;;5038556;28;20309;-91
2021/08/06 01:06:50;;;;;;;13.68;10.15;;;17.30;99.90;;;;;;5039407;28;20037;-91
2021/08/06 01:09:19;;;;;;;15.68;10.50;;;17.40;99.90;;;;;;5057584;28;20069;-92
2021/08/06 01:11:50;;;;;;;15.07;9.88;;;17.40;99.90;;;;;;5041537;28;20070;-92
2021/08/06 01:14:22;;;;;;;17.17;10.75;;;17.40;99.90;;;;;;5041996;28;20034;-93
2021/08/06 01:16:51;;;;;;;13.98;10.23;;;17.40;99.90;;;;;;5045713;28;20041;-93
2021/08/06 01:19:46;;;;;;;14.32;10.95;;;17.40;99.90;;;;;;5042460;28;20428;-92
2021/08/06 01:22:28;;;;;;;18.80;10.23;;;17.40;99.90;;;;;;5042065;28;20048;-93
2021/08/06 01:25:27;;;;;;;12.07;10.23;;;17.40;99.90;;;;;;5048379;28;20037;-93
2021/08/06 01:27:57;;;;;;;16.17;10.65;;;17.40;99.90;;;;;;5077813;28;20135;-92
2021/08/06 01:30:22;;;;;;;13.32;10.13;;;17.40;99.90;;;;;;5063732;28;20090;-91
2021/08/06 01:32:48;;;;;;;13.23;10.32;;;17.40;99.90;;;;;;5061874;28;20041;-92
2021/08/06 01:35:14;;;;;;;12.70;10.55;;;17.40;99.90;;;;;;5061702;28;20039;-91
2021/08/06 01:37:41;;;;;;;13.85;10.88;;;17.40;99.90;;;;;;5049234;28;20037;-93
2021/08/06 01:40:09;;;;;;;17.55;13.00;;;17.50;99.90;;;;;;5051787;28;20037;-92
2021/08/06 01:42:45;;;;;;;17.50;12.50;;;17.40;99.90;;;;;;5052032;28;20589;-93
2021/08/06 01:45:17;;;;;;;19.45;13.85;;;17.40;99.90;;;;;;5041356;28;20053;-91
2021/08/06 01:47:47;;;;;;;20.35;13.05;;;17.50;99.90;;;;;;5043335;28;20018;-92
2021/08/06 01:50:17;;;;;;;18.52;13.60;;;17.40;99.90;;;;;;5049460;28;20099;-92
2021/08/06 01:53:04;;;;;;;19.73;13.88;;;17.40;99.90;;;;;;5061959;28;20059;-92
2021/08/06 01:55:41;;;;;;;21.17;13.10;;;17.40;99.90;;;;;;5061095;28;20109;-92
2021/08/06 01:58:10;;;;;;;24.33;13.57;;;17.40;99.90;;;;;;5060800;28;20040;-94
2021/08/06 02:00:37;;;;;;;18.75;14.18;;;17.40;99.90;;;;;;5057298;28;20072;-93
2021/08/06 02:03:05;;;;;;;18.83;13.32;;;17.40;99.90;;;;;;5061301;28;20036;-93
2021/08/06 02:05:32;;;;;;;16.75;12.98;;;17.40;99.90;;;;;;5067917;28;20051;-92
2021/08/06 02:07:57;;;;;;;15.13;10.75;;;17.40;99.90;;;;;;5059154;28;20041;-93
2021/08/06 02:10:24;;;;;;;14.93;11.55;;;17.40;99.90;;;;;;5060862;28;20300;-93
2021/08/06 02:12:49;;;;;;;16.20;10.43;;;17.40;99.90;;;;;;5042526;28;20128;-93
2021/08/06 02:15:15;;;;;;;17.45;10.50;;;17.40;99.90;;;;;;5040983;28;20083;-93
2021/08/06 02:17:43;;;;;;;13.43;10.68;;;17.30;99.90;;;;;;5041237;28;20060;-92
2021/08/06 02:20:10;;;;;;;11.55;9.63;;;17.30;99.90;;;;;;5043803;28;20119;-94
2021/08/06 02:22:36;;;;;;;13.00;10.35;;;17.20;99.90;;;;;;5050774;28;20037;-93
2021/08/06 02:25:04;;;;;;;12.88;9.60;;;17.20;99.90;;;;;;5045598;28;20113;-93
2021/08/06 02:27:31;;;;;;;11.73;10.00;;;17.10;99.90;;;;;;5037546;28;20053;-92
2021/08/06 02:29:59;;;;;;;14.00;9.30;;;17.10;99.90;;;;;;5020865;28;20037;-94
2021/08/06 02:32:25;;;;;;;13.13;10.38;;;17.10;99.90;;;;;;5029704;28;21528;-93
2021/08/06 02:34:52;;;;;;;12.98;9.20;;;17.10;99.90;;;;;;5040896;28;20041;-92
2021/08/06 02:37:18;;;;;;;12.30;9.90;;;17.00;99.90;;;;;;5040449;28;20103;-93
2021/08/06 02:39:44;;;;;;;12.02;9.50;;;17.00;99.90;;;;;;5040328;28;20033;-93
2021/08/06 02:42:10;;;;;;;12.52;10.00;;;17.00;99.90;;;;;;5054374;28;20041;-94
2021/08/06 02:44:37;;;;;;;11.75;8.40;;;17.00;99.90;;;;;;5052649;28;20036;-93
2021/08/06 02:47:07;;;;;;;14.90;9.32;;;17.00;99.90;;;;;;5044108;28;20037;-93
2021/08/06 02:49:34;;;;;;;10.60;9.20;;;16.90;99.90;;;;;;5041329;28;20076;-92
2021/08/06 02:52:01;;;;;;;11.20;9.15;;;16.90;99.90;;;;;;5040387;28;20041;-92
2021/08/06 02:54:26;;;;;;;10.43;9.35;;;16.90;99.90;;;;;;5041002;28;20041;-93
2021/08/06 02:56:52;;;;;;;12.77;9.60;;;16.90;99.90;;;;;;5039920;28;20284;-93
2021/08/06 02:59:18;;;;;;;15.35;9.00;;;16.80;99.90;;;;;;5048474;28;20037;-93
2021/08/06 03:01:44;;;;;;;11.98;9.93;;;16.80;99.90;;;;;;5041180;28;20041;-93
2021/08/06 03:04:09;;;;;;;13.82;9.52;;;16.70;99.90;;;;;;5051399;28;20060;-93
2021/08/06 03:06:35;;;;;;;9.57;8.30;;;16.70;99.90;;;;;;5048933;28;20017;-93
2021/08/06 03:09:01;;;;;;;12.10;8.98;;;16.70;99.90;;;;;;5058855;28;20127;-94
2021/08/06 03:11:27;;;;;;;16.38;9.50;;;16.70;99.90;;;;;;5059709;28;20122;-93
2021/08/06 03:13:52;;;;;;;15.82;8.95;;;16.70;99.90;;;;;;5040228;28;20064;-93
2021/08/06 03:16:18;;;;;;;12.43;9.73;;;16.60;99.90;;;;;;5039416;28;20037;-93
2021/08/06 03:18:43;;;;;;;11.23;9.02;;;16.50;99.90;;;;;;5041586;28;20033;-94
2021/08/06 03:21:10;;;;;;;11.45;9.00;;;16.50;99.90;;;;;;5060233;28;20266;-92
2021/08/06 03:23:36;;;;;;;11.15;8.77;;;16.50;99.90;;;;;;5047785;28;20030;-92
2021/08/06 03:26:02;;;;;;;12.70;9.90;;;16.50;99.90;;;;;;5039620;28;20049;-92
2021/08/06 03:28:27;;;;;;;15.82;10.93;;;16.50;99.90;;;;;;5039711;28;20037;-91
2021/08/06 03:30:53;;;;;;;13.07;10.02;;;16.50;99.90;;;;;;5046016;28;20040;-92
2021/08/06 03:33:19;;;;;;;11.38;9.23;;;16.40;99.90;;;;;;5058605;28;20095;-92
2021/08/06 03:35:45;;;;;;;18.00;9.27;;;16.50;99.90;;;;;;5041900;28;20324;-92
2021/08/06 03:38:19;;;;;;;13.85;10.07;;;16.50;99.90;;;;;;5054415;28;20319;-92
2021/08/06 03:40:46;;;;;;;13.88;10.35;;;16.40;99.90;;;;;;5062149;28;20176;-91
2021/08/06 03:43:11;;;;;;;12.45;10.00;;;16.40;99.90;;;;;;5042850;28;20029;-92
2021/08/06 03:45:37;;;;;;;15.38;10.63;;;16.40;99.90;;;;;;5043548;28;20131;-91
2021/08/06 03:48:03;;;;;;;14.15;10.73;;;16.40;99.90;;;;;;5059521;28;20412;-92
2021/08/06 03:50:29;;;;;;;15.15;10.75;;;16.40;99.90;;;;;;5061723;28;20403;-92
2021/08/06 03:52:55;;;;;;;14.55;11.63;;;16.40;99.90;;;;;;5054514;28;20113;-93
2021/08/06 03:55:20;;;;;;;13.43;10.50;;;16.40;99.90;;;;;;5039862;28;20045;-92
2021/08/06 03:57:57;;;;;;;18.33;11.40;;;16.40;99.90;;;;;;5038441;28;20038;-92
2021/08/06 04:00:24;;;;;;;15.23;11.32;;;16.40;99.90;;;;;;5039049;28;20095;-92
2021/08/06 04:02:50;;;;;;;15.20;11.75;;;16.40;99.90;;;;;;5038516;28;20511;-92
2021/08/06 04:05:16;;;;;;;13.25;10.40;;;16.30;99.90;;;;;;5051803;28;20034;-93
2021/08/06 04:07:43;;;;;;;22.58;11.55;;;16.40;99.90;;;;;;5039373;28;20401;-94
2021/08/06 04:10:17;;;;;;;18.23;12.00;;;16.40;99.90;;;;;;5039076;28;20120;-91
2021/08/06 04:12:42;;;;;;;18.15;12.13;;;16.40;99.90;;;;;;5038870;28;20115;-91
2021/08/06 04:15:08;;;;;;;15.32;11.73;;;16.50;99.90;;;;;;5052681;28;20049;-91
2021/08/06 04:17:34;;;;;;;15.82;11.77;;;16.50;99.90;;;;;;5063261;28;20053;-91
2021/08/06 04:20:00;;;;;;;24.48;11.50;;;16.50;99.90;;;;;;5050312;28;20357;-92
2021/08/06 04:22:26;;;;;;;14.85;11.02;;;16.50;99.90;;;;;;5048518;28;20110;-93
2021/08/06 04:24:55;;;;;;;14.63;10.50;;;16.50;99.90;;;;;;5038425;28;20037;-93
2021/08/06 04:27:20;;;;;;;16.20;11.20;;;16.50;99.90;;;;;;5038861;28;20171;-92
2021/08/06 04:29:48;;;;;;;15.45;11.25;;;16.50;99.90;;;;;;5037726;28;20076;-93
2021/08/06 04:32:13;;;;;;;13.32;9.60;;;16.60;99.90;;;;;;5037713;28;20037;-92
2021/08/06 04:34:39;;;;;;;12.73;10.30;;;16.60;99.90;;;;;;5037179;28;20114;-93
2021/08/06 04:37:04;;;;;;;13.25;10.70;;;16.60;99.90;;;;;;5037104;28;20053;-94
2021/08/06 04:39:30;;;;;;;18.35;11.45;;;16.60;99.90;;;;;;5037382;28;20037;-93
2021/08/06 04:41:55;;;;;;;13.70;10.82;;;16.60;99.90;;;;;;5036661;28;20076;-93
2021/08/06 04:44:21;;;;;;;22.27;10.70;;;16.60;99.90;;;;;;5037436;28;20543;-93
2021/08/06 04:47:05;;;;;;;22.15;10.85;;;16.70;99.90;;;;;;5038864;28;20381;-93
2021/08/06 04:49:31;;;;;;;17.48;10.90;;;16.70;99.90;;;;;;5055263;28;20033;-93
2021/08/06 04:51:56;;;;;;;14.95;11.40;;;16.60;99.90;;;;;;5044527;28;20460;-92
2021/08/06 04:54:22;;;;;;;15.75;12.07;;;16.60;99.90;;;;;;5040908;28;20107;-94
2021/08/06 04:56:47;;;;;;;17.80;13.07;;;16.60;99.90;;;;;;5040623;28;20041;-92
2021/08/06 05:01:38;;;;;;;17.02;12.55;;;16.60;99.90;;;;;;5119405;27;20425;-90
2021/08/06 05:04:07;;;;;;;19.45;13.57;;;16.70;99.90;;;;;;5112417;28;20402;-92
2021/08/06 05:07:00;;;;;;;17.23;11.88;;;16.80;99.90;;;;;;5115440;28;20053;-91
2021/08/06 05:09:36;;;;;;;18.30;12.23;;;16.80;99.90;;;;;;5115197;28;20064;-94
2021/08/06 05:12:37;;;;;;;18.40;12.93;;;16.80;99.90;;;;;;5115744;28;20100;-92
2021/08/06 05:15:06;;;;;;;18.95;12.90;;;16.80;99.90;;;;;;5114480;28;20036;-94
2021/08/06 05:21:16;;;;;;;17.33;12.35;;;16.90;99.90;;;;;;5113500;28;20042;-94
2021/08/06 05:23:58;;;;;;;17.80;13.38;;;17.00;99.90;;;;;;5127935;28;20047;-95
2021/08/06 05:26:32;;;;;;;16.35;12.30;;;17.10;99.90;;;;;;5113359;28;20076;-94
2021/08/06 05:29:40;;;;;;;20.65;13.73;;;17.10;99.90;;;;;;5109551;28;20122;-92
2021/08/06 05:32:49;;;;;;;20.63;14.32;;;17.20;99.90;;;;;;5117856;28;20040;-94
2021/08/06 05:35:38;;;;;;;18.67;13.27;;;17.30;99.90;;;;;;5115174;28;20126;-93
2021/08/06 05:38:11;;;;;;;18.75;11.73;;;17.40;99.90;;;;;;5115126;28;20047;-93
2021/08/06 05:40:53;;;;;;;14.05;11.35;;;17.40;99.90;;;;;;5114379;28;20057;-92
2021/08/06 05:43:28;;;;;;;20.55;15.38;;;17.60;99.90;;;;;;5114614;28;20093;-92
2021/08/06 05:45:59;;;;;;;18.90;14.40;;;17.60;99.90;;;;;;5115787;28;20040;-93
2021/08/06 05:48:56;;;;;;;17.67;15.05;;;17.70;99.90;;;;;;5127429;27;20036;-93
2021/08/06 05:54:26;;;;;;;20.98;13.95;;;17.80;99.90;;;;;;5110048;28;20038;-93
2021/08/06 06:07:27;;;;;;;16.83;12.73;;;18.00;99.90;;;;;;5087275;28;20036;-93
2021/08/06 06:10:08;;;;;;;12.45;10.43;;;18.10;99.90;;;;;;5104915;28;20091;-94
2021/08/06 06:13:06;;;;;;;13.73;10.23;;;18.10;99.60;;;;;;5100872;28;20036;-95
2021/08/06 06:22:57;;;;;;;10.50;8.20;;;18.40;99.00;;;;;;5007593;28;20033;-95
2021/08/06 06:25:50;;;;;;;9.43;8.50;;;18.40;98.80;;;;;;5079240;28;20295;-94
2021/08/06 06:32:42;;;;;;;9.38;8.35;;;18.50;99.10;;;;;;5038881;28;20040;-95
2021/08/06 06:35:21;;;;;;;8.55;7.60;;;18.60;99.30;;;;;;5099830;28;20036;-94
2021/08/06 06:38:29;;;;;;;8.65;7.80;;;18.70;99.10;;;;;;5085355;28;20059;-94
2021/08/06 06:41:04;;;;;;;8.55;7.40;;;18.80;98.60;;;;;;5100536;28;20194;-95
2021/08/06 06:43:51;;;;;;;7.85;7.05;;;18.80;98.60;;;;;;5086724;28;20033;-96
2021/08/06 06:47:13;;;;;;;;;;;;;;;;;;;;;
2021/08/06 06:56:07;;;;;;;7.93;7.13;;;19.00;98.40;;;;;;5036220;28;20450;-95
2021/08/06 06:58:32;;;;;;;8.40;6.72;;;19.00;98.10;;;;;;5050211;28;20028;-94
2021/08/06 07:00:58;;;;;;;11.65;7.25;;;19.00;98.20;;;;;;5074975;28;20068;-87
2021/08/06 07:04:18;;;;;;;7.82;6.97;;;19.00;98.00;;;;;;5090246;28;20067;-95
2021/08/06 07:10:29;;;;;;;8.00;6.75;;;19.10;98.20;;;;;;5100167;28;20097;-94
2021/08/06 07:14:12;;;;;;;;;;;;;;;;;;;;;
2021/08/06 07:20:42;;;;;;;8.82;5.57;;;19.10;97.40;;;;;;5078413;28;20029;-93
2021/08/06 07:30:36;;;;;;;12.45;4.80;;;19.30;97.30;;;;;;5058882;28;20036;-94
2021/08/06 07:33:05;;;;;;;6.80;4.90;;;19.40;97.30;;;;;;5102474;28;20032;-93
2021/08/06 07:35:32;;;;;;;5.93;4.30;;;19.50;96.80;;;;;;5098796;28;20149;-91
2021/08/06 07:37:59;;;;;;;7.80;4.28;;;19.70;96.80;;;;;;5089722;28;20033;-91
2021/08/06 07:40:25;;;;;;;7.15;4.72;;;19.80;96.60;;;;;;5079620;28;20032;-91
2021/08/06 07:42:52;;;;;;;8.32;3.80;;;19.90;96.50;;;;;;5081507;28;20036;-90
2021/08/06 07:45:19;;;;;;;4.28;3.58;;;20.00;96.10;;;;;;5099118;28;20031;-91
2021/08/06 07:47:50;;;;;;;7.28;3.83;;;20.10;95.90;;;;;;5099074;28;20286;-92
2021/08/06 07:50:21;;;;;;;3.97;3.35;;;20.30;95.80;;;;;;5098917;28;20044;-91
2021/08/06 07:52:49;;;;;;;3.50;3.10;;;20.40;95.40;;;;;;5099540;28;20083;-92
2021/08/06 07:55:18;;;;;;;4.63;2.97;;;20.60;95.50;;;;;;5099011;28;20089;-92
2021/08/06 07:57:46;;;;;;;3.85;3.35;;;20.70;95.20;;;;;;5098815;28;20059;-92
2021/08/06 08:00:20;;;;;;;3.78;2.88;;;20.90;94.30;;;;;;5099188;28;20035;-92
2021/08/06 08:02:53;;;;;;;4.97;2.78;;;21.00;94.10;;;;;;5093095;28;20044;-92
2021/08/06 08:05:20;;;;;;;3.47;2.83;;;21.00;94.30;;;;;;5087227;28;20037;-93
2021/08/06 08:07:47;;;;;;;3.63;3.03;;;21.20;94.30;;;;;;5088617;28;20032;-91
2021/08/06 08:10:13;;;;;;;3.60;2.83;;;21.30;93.90;;;;;;5085280;28;20032;-91
2021/08/06 08:12:42;;;;;;;3.65;2.95;;;21.40;93.90;;;;;;5102837;28;20040;-91
2021/08/06 08:15:43;;;;;;;3.17;2.53;;;21.50;93.80;;;;;;5101157;28;20039;-93
2021/08/06 08:18:51;;;;;;;4.05;2.80;;;21.70;93.60;;;;;;5099595;28;20139;-91
2021/08/06 08:21:43;;;;;;;5.70;2.47;;;21.90;92.60;;;;;;5098204;28;20126;-92
2021/08/06 08:24:39;;;;;;;4.38;2.17;;;22.00;91.50;;;;;;5098660;28;20039;-92
2021/08/06 08:30:54;;;;;;;;;;;;;;;;;;;;;
2021/08/06 08:34:41;;;;;;;4.40;1.90;;;22.40;91.30;;;;;;5078770;28;20414;-94
2021/08/06 08:37:17;;;;;;;;;;;;;;;;;;;;;
2021/08/06 08:43:32;;;;;;;2.30;1.80;;;22.80;91.10;;;;;;5037207;28;20044;-95
2021/08/06 08:56:56;;;;;;;;;;;;;;;;;;;;;
2021/08/06 09:07:15;;;;;;;;;;;;;;;;;;;;;
2021/08/06 09:54:19;;;;;;;3.13;2.35;;;24.80;86.20;;;;;;5081657;28;20360;-93
2021/08/06 09:56:46;;;;;;;3.13;1.98;;;24.90;86.00;;;;;;5093886;28;20416;-86
2021/08/06 09:59:11;;;;;;;3.47;2.33;;;25.10;85.90;;;;;;5091787;28;20040;-88
2021/08/06 10:01:37;;;;;;;3.78;2.30;;;25.30;87.90;;;;;;5093591;28;20082;-87
2021/08/06 10:04:14;;;;;;;3.35;2.60;;;25.40;84.10;;;;;;5078362;28;20225;-87
2021/08/06 10:06:56;;;;;;;5.57;2.53;;;25.60;83.40;;;;;;5081485;28;20122;-89
2021/08/06 10:09:22;;;;;;;2.38;1.98;;;25.70;83.10;;;;;;5089294;28;20043;-88
2021/08/06 10:11:47;;;;;;;2.45;2.25;;;25.70;83.20;;;;;;5102841;28;20032;-89
2021/08/06 10:14:14;;;;;;;2.97;2.15;;;25.80;82.50;;;;;;5095507;28;20396;-88
2021/08/06 10:16:39;;;;;;;2.40;2.20;;;25.80;82.00;;;;;;5096764;28;20036;-87
2021/08/06 10:19:05;;;;;;;3.17;1.92;;;25.70;84.50;;;;;;5083413;28;20090;-87
2021/08/06 10:21:32;;;;;;;2.25;2.05;;;25.60;82.70;;;;;;5084497;28;20106;-87
2021/08/06 10:23:58;;;;;;;4.43;2.00;;;25.50;82.50;;;;;;5095084;28;20063;-88
2021/08/06 10:26:24;;;;;;;2.38;1.77;;;25.40;83.30;;;;;;5085515;28;20072;-87
2021/08/06 10:28:49;;;;;;;4.80;1.63;;;25.50;85.00;;;;;;5101361;28;20040;-88
2021/08/06 10:31:17;;;;;;;3.13;1.80;;;25.50;82.30;;;;;;5082635;28;20433;-88
2021/08/06 10:34:01;;;;;;;2.17;1.60;;;25.60;81.90;;;;;;5094701;28;20061;-86
2021/08/06 10:36:51;;;;;;;1.30;1.13;;;25.80;81.60;;;;;;5085717;28;20431;-86
2021/08/06 10:39:33;;;;;;;2.40;1.35;;;25.90;80.30;;;;;;5094125;28;20093;-87
2021/08/06 10:41:59;;;;;;;1.77;1.48;;;26.10;81.80;;;;;;5086361;28;20050;-88
2021/08/06 10:44:25;;;;;;;3.97;1.30;;;26.20;81.40;;;;;;5088106;28;20036;-88
2021/08/06 10:46:57;;;;;;;1.80;1.20;;;26.20;80.20;;;;;;5093050;28;20123;-86
2021/08/06 10:49:23;;;;;;;;;;;26.20;81.10;;;;;;5103008;28;20097;-86
2021/08/06 10:52:09;;;;;;;1.90;1.58;;;26.30;79.70;;;;;;5080498;28;20317;-87
2021/08/06 10:54:35;;;;;;;5.75;1.52;;;26.20;78.60;;;;;;5084639;28;20044;-88
2021/08/06 10:57:14;;;;;;;1.33;1.13;;;26.20;80.40;;;;;;5086151;28;20655;-87
2021/08/06 10:59:43;;;;;;;2.95;1.27;;;26.30;84.40;;;;;;5092807;28;20044;-90
2021/08/06 11:02:34;;;;;;;2.65;1.00;;;26.30;81.10;;;;;;5090606;28;20614;-89
2021/08/06 11:05:00;;;;;;;1.30;1.00;;;26.40;79.70;;;;;;5085595;28;20032;-88
2021/08/06 11:07:35;;;;;;;3.75;1.00;;;26.60;79.50;;;;;;5088743;28;20036;-88
2021/08/06 11:10:01;;;;;;;1.23;0.90;;;26.80;78.20;;;;;;5087626;28;20047;-86
2021/08/06 11:12:32;;;;;;;1.17;1.08;;;27.00;76.30;;;;;;5081584;28;20314;-87
2021/08/06 11:15:04;;;;;;;1.27;1.13;;;27.20;74.90;;;;;;5085556;28;20043;-88
2021/08/06 11:17:44;;;;;;;1.63;1.10;;;27.20;77.90;;;;;;5095649;28;20044;-89
2021/08/06 11:20:20;;;;;;;2.35;1.15;;;27.30;75.00;;;;;;5098463;28;20348;-91
2021/08/06 11:22:50;;;;;;;1.48;1.20;;;27.30;76.40;;;;;;5095740;28;20028;-90
2021/08/06 11:25:25;;;;;;;1.45;0.90;;;27.30;76.00;;;;;;5088859;28;20031;-91
2021/08/06 11:28:01;;;;;;;2.67;1.20;;;27.30;76.80;;;;;;5086926;28;20032;-92
2021/08/06 11:30:36;;;;;;;1.25;0.85;;;27.20;74.50;;;;;;5080081;28;20048;-90
2021/08/06 11:33:03;;;;;;;2.10;1.00;;;27.10;77.10;;;;;;5087135;28;20360;-88
2021/08/06 11:35:35;;;;;;;1.02;0.60;;;27.30;78.10;;;;;;5088300;28;20101;-88
2021/08/06 11:38:05;;;;;;;1.27;0.93;;;27.30;73.10;;;;;;5088240;28;20036;-89
2021/08/06 11:40:36;;;;;;;0.80;0.70;;;27.40;74.00;;;;;;5095168;28;20349;-90
2021/08/06 11:43:18;;;;;;;3.78;1.20;;;27.50;74.00;;;;;;5090411;28;20039;-89
2021/08/06 11:45:45;;;;;;;;;;;27.60;73.30;;;;;;5079222;28;20119;-91
2021/08/06 11:48:14;;;;;;;3.53;0.90;;;27.50;72.30;;;;;;5079546;28;19909;-92
2021/08/06 11:50:48;;;;;;;1.45;0.90;;;27.40;73.70;;;;;;5083639;28;20040;-93
2021/08/06 11:53:28;;;;;;;1.10;0.88;;;27.10;74.30;;;;;;5102232;28;20036;-92
2021/08/06 11:59:41;;;;;;;1.85;1.10;;;26.60;74.30;;;;;;5035653;28;20115;-92
2021/08/06 12:02:40;;;;;;;2.25;1.13;;;26.30;77.00;;;;;;5055498;28;20036;-93
2021/08/06 12:05:29;;;;;;;1.85;1.15;;;26.10;77.00;;;;;;5109661;28;20070;-89
2021/08/06 12:07:55;;;;;;;1.70;0.98;;;25.90;77.90;;;;;;5078546;28;20124;-89
2021/08/06 12:10:49;;;;;;;2.60;1.48;;;25.70;79.80;;;;;;5093846;28;20075;-90
2021/08/06 12:13:20;;;;;;;1.73;1.10;;;25.40;79.90;;;;;;5093164;28;20071;-88
2021/08/06 12:15:46;;;;;;;4.15;1.05;;;25.20;80.30;;;;;;5084791;28;20123;-87
2021/08/06 12:18:19;;;;;;;1.35;1.13;;;24.90;79.50;;;;;;5093745;28;20659;-87
2021/08/06 12:20:52;;;;;;;3.17;1.20;;;24.60;80.30;;;;;;5095150;28;20040;-87
2021/08/06 12:23:20;;;;;;;3.80;1.02;;;24.40;81.80;;;;;;5095568;28;20032;-88
2021/08/06 12:26:02;;;;;;;4.35;1.02;;;24.20;79.50;;;;;;5083379;28;20347;-88
2021/08/06 12:28:27;;;;;;;1.42;0.63;;;23.80;79.20;;;;;;5089502;28;20267;-92
2021/08/06 12:31:09;;;;;;;4.30;0.93;;;23.60;80.40;;;;;;5088384;28;20089;-90
2021/08/06 12:33:36;;;;;;;0.90;0.60;;;23.40;81.30;;;;;;5099611;28;20036;-91
2021/08/06 12:36:10;;;;;;;1.15;0.70;;;23.20;82.20;;;;;;5089197;28;20043;-89
2021/08/06 12:38:35;;;;;;;3.40;0.90;;;22.90;82.60;;;;;;5091723;28;20054;-90
2021/08/06 12:41:02;;;;;;;3.53;1.10;;;22.60;84.90;;;;;;5094840;28;20039;-90
2021/08/06 12:43:27;;;;;;;2.25;0.73;;;22.40;86.30;;;;;;5085257;28;20037;-91
2021/08/06 12:46:10;;;;;;;5.50;1.20;;;22.20;88.10;;;;;;5091091;28;20043;-90
2021/08/06 12:48:36;;;;;;;0.55;0.45;;;22.10;89.00;;;;;;5122284;27;20040;-90
2021/08/06 12:51:17;;;;;;;1.10;0.98;;;22.00;89.50;;;;;;5086679;28;20131;-90
2021/08/06 12:53:43;;;;;;;1.55;0.85;;;22.00;89.40;;;;;;5086748;28;20119;-88
2021/08/06 12:56:08;;;;;;;2.15;1.00;;;22.00;91.50;;;;;;5082680;28;20127;-90
2021/08/06 12:58:34;;;;;;;4.55;1.17;;;22.10;92.50;;;;;;5089922;28;20046;-89
2021/08/06 13:01:00;;;;;;;1.13;0.88;;;22.20;91.90;;;;;;5116967;27;20192;-89
2021/08/06 13:03:26;;;;;;;1.75;0.90;;;22.40;91.30;;;;;;5086481;28;20142;-88
2021/08/06 13:05:52;;;;;;;1.83;1.08;;;22.70;90.30;;;;;;5086899;28;20046;-89
2021/08/06 13:08:40;;;;;;;1.10;0.82;;;22.90;89.60;;;;;;5101683;28;20093;-88
2021/08/06 13:11:05;;;;;;;1.23;1.00;;;23.20;90.90;;;;;;5123322;28;20041;-88
2021/08/06 13:13:38;;;;;;;1.08;0.98;;;23.50;89.20;;;;;;5091708;28;20040;-88
2021/08/06 13:16:06;;;;;;;1.80;1.40;;;23.70;90.20;;;;;;5084669;28;20059;-88
2021/08/06 13:18:34;;;;;;;1.40;1.23;;;23.90;89.00;;;;;;5079862;28;20127;-88
2021/08/06 13:20:59;;;;;;;1.20;0.82;;;24.10;90.70;;;;;;5085449;28;20052;-88
2021/08/06 13:23:25;;;;;;;1.80;1.15;;;24.30;87.50;;;;;;5100320;28;20413;-89
2021/08/06 13:25:51;;;;;;;2.13;1.30;;;24.40;86.30;;;;;;5100745;28;20060;-89
2021/08/06 13:28:17;;;;;;;1.30;1.13;;;24.50;87.40;;;;;;5101526;28;20044;-89
2021/08/06 13:30:43;;;;;;;1.98;1.58;;;24.50;88.50;;;;;;5099860;28;20040;-88
2021/08/06 13:33:10;;;;;;;2.42;1.60;;;24.70;87.80;;;;;;5100450;28;20040;-89
2021/08/06 13:35:35;;;;;;;1.55;1.10;;;24.80;85.80;;;;;;5100129;28;20355;-89
2021/08/06 13:38:01;;;;;;;2.70;2.05;;;25.00;83.20;;;;;;5099983;28;20040;-90
2021/08/06 13:40:30;;;;;;;2.10;1.27;;;25.10;81.00;;;;;;5100572;28;20147;-89
2021/08/06 13:42:56;;;;;;;2.10;1.40;;;25.10;80.80;;;;;;5108807;28;20032;-88
2021/08/06 13:45:23;;;;;;;1.60;1.23;;;25.10;83.00;;;;;;5112165;28;20073;-88
2021/08/06 13:47:49;;;;;;;3.60;1.17;;;25.20;80.90;;;;;;5100759;28;20124;-88
2021/08/06 13:50:14;;;;;;;1.33;1.15;;;25.40;82.10;;;;;;5099968;28;20064;-88
2021/08/06 13:52:40;;;;;;;1.52;1.15;;;25.50;79.40;;;;;;5099803;28;20126;-89
2021/08/06 13:55:06;;;;;;;1.73;1.08;;;25.60;77.70;;;;;;5099819;28;20040;-88
2021/08/06 13:57:33;;;;;;;2.38;1.40;;;25.80;79.60;;;;;;5099903;28;20028;-89
2021/08/06 13:59:58;;;;;;;1.80;1.25;;;25.90;79.50;;;;;;5100290;28;20051;-90
2021/08/06 14:02:24;;;;;;;1.48;1.27;;;26.00;78.30;;;;;;5099394;28;20040;-88
2021/08/06 14:04:50;;;;;;;4.20;1.40;;;26.00;80.50;;;;;;5100504;28;20436;-88
2021/08/06 14:07:18;;;;;;;5.20;1.30;;;26.20;77.00;;;;;;5100460;28;20028;-89
2021/08/06 14:09:45;;;;;;;2.20;1.25;;;26.30;78.40;;;;;;5099048;28;20074;-88
2021/08/06 14:12:11;;;;;;;3.15;0.90;;;26.30;75.30;;;;;;5100451;28;20032;-88
2021/08/06 14:14:37;;;;;;;2.22;1.20;;;26.30;78.00;;;;;;5099098;28;20134;-87
2021/08/06 14:17:03;;;;;;;1.63;1.27;;;26.40;77.40;;;;;;5103901;28;20063;-87
2021/08/06 14:19:29;;;;;;;2.47;1.27;;;26.40;77.70;;;;;;5113917;28;20078;-88
2021/08/06 14:21:54;;;;;;;3.05;1.30;;;26.50;78.00;;;;;;5099691;28;20090;-88
2021/08/06 14:24:20;;;;;;;1.30;1.00;;;26.60;78.70;;;;;;5099418;28;20039;-87
2021/08/06 14:26:46;;;;;;;2.13;1.40;;;26.70;79.20;;;;;;5098920;28;20416;-87
2021/08/06 14:29:12;;;;;;;2.58;1.15;;;26.80;76.70;;;;;;5098841;28;20028;-89
2021/08/06 14:31:37;;;;;;;1.38;1.27;;;26.80;77.10;;;;;;5098736;28;20398;-89
2021/08/06 14:34:03;;;;;;;1.40;1.20;;;26.80;78.70;;;;;;5099233;28;20181;-89
2021/08/06 14:36:28;;;;;;;1.20;1.10;;;26.80;78.20;;;;;;5100928;28;20705;-87
2021/08/06 14:38:54;;;;;;;1.77;1.38;;;26.90;78.10;;;;;;5098684;28;20046;-88
2021/08/06 14:41:19;;;;;;;2.28;1.10;;;26.90;78.40;;;;;;5098622;28;20039;-87
2021/08/06 14:43:45;;;;;;;2.45;1.20;;;27.00;78.60;;;;;;5100101;28;20088;-88
2021/08/06 14:46:10;;;;;;;1.45;1.02;;;27.00;77.70;;;;;;5098972;28;20042;-88
2021/08/06 14:48:37;;;;;;;1.25;1.02;;;27.00;77.70;;;;;;5098523;28;20067;-88
2021/08/06 14:51:03;;;;;;;1.23;0.85;;;27.00;78.70;;;;;;5099461;28;20052;-89
2021/08/06 14:53:28;;;;;;;1.13;0.95;;;27.00;78.80;;;;;;5105425;28;20359;-88
2021/08/06 14:55:54;;;;;;;5.90;1.20;;;27.00;78.30;;;;;;5106031;28;20039;-89
2021/08/06 14:58:19;;;;;;;2.90;1.10;;;26.80;78.40;;;;;;5099539;28;20123;-89
2021/08/06 15:00:45;;;;;;;2.45;1.35;;;26.70;79.10;;;;;;5098397;28;20040;-89
2021/08/06 15:03:11;;;;;;;1.23;1.05;;;26.60;79.70;;;;;;5099354;28;20039;-88
2021/08/06 15:05:39;;;;;;;0.90;0.70;;;26.50;80.40;;;;;;5099904;28;20027;-89
2021/08/06 15:08:08;;;;;;;1.77;0.90;;;26.40;79.10;;;;;;5098664;28;20061;-89
2021/08/06 15:10:34;;;;;;;0.73;0.60;;;26.40;80.40;;;;;;5098803;28;20051;-89
2021/08/06 15:13:00;;;;;;;0.90;0.80;;;26.40;79.80;;;;;;5098576;28;20274;-90
2021/08/06 15:15:26;;;;;;;1.40;1.00;;;26.40;80.80;;;;;;5098952;28;20105;-88
2021/08/06 15:17:52;;;;;;;3.40;0.73;;;26.40;80.00;;;;;;5099620;28;20150;-88